Time;durP1;ratioP1;P1;durP2;ratioP2;P2;SDS_P1;SDS_P2;PMS_P1;PMS_P2;Temp;Humidity;BMP_temperature;BMP_pressure;BME280_temperature;BME280_humidity;BME280_pressure;Samples;Min_cycle;Max_cycle;Signal;HPM_P1;HPM_P2
2022/09/20 00:02:18;;;;;;;4.20;1.80;;;;;;;6.70;100.00;97201.71;109909;1248;68693;-69
2022/09/20 00:04:48;;;;;;;1.70;1.30;;;;;;;6.70;100.00;97201.54;109971;1247;59751;-68
2022/09/20 00:07:20;;;;;;;2.20;1.70;;;;;;;6.69;100.00;97202.29;109824;1248;59626;-67
2022/09/20 00:09:50;;;;;;;2.00;1.50;;;;;;;6.67;100.00;97203.12;109795;1249;71432;-68
2022/09/20 00:12:20;;;;;;;1.80;1.60;;;;;;;6.65;100.00;97200.28;110014;1248;69265;-70
2022/09/20 00:14:49;;;;;;;;;;;;;;;6.64;100.00;97203.64;109897;1247;68683;-70
2022/09/20 00:17:21;;;;;;;1.90;1.50;;;;;;;6.61;100.00;97201.04;109998;1248;59742;-69
2022/09/20 00:19:50;;;;;;;;;;;;;;;6.59;100.00;97200.44;109987;1250;59640;-69
2022/09/20 00:22:20;;;;;;;2.40;1.70;;;;;;;6.57;100.00;97203.71;110008;1247;70955;-68
2022/09/20 00:24:50;;;;;;;1.50;1.40;;;;;;;6.53;100.00;97201.83;109754;1247;67579;-67
2022/09/20 00:27:20;;;;;;;1.80;1.60;;;;;;;6.52;100.00;97199.01;110021;1247;68465;-68
2022/09/20 00:29:52;;;;;;;1.90;1.40;;;;;;;6.49;100.00;97191.88;109976;1250;59720;-68
2022/09/20 00:32:22;;;;;;;1.50;1.40;;;;;;;6.48;100.00;97193.85;109993;1249;59755;-70
2022/09/20 00:35:09;;;;;;;;;;;;;;;6.48;100.00;97195.23;109880;1247;71878;-69
2022/09/20 00:37:42;;;;;;;1.30;1.20;;;;;;;6.48;100.00;97194.40;110146;1249;68682;-68
2022/09/20 00:40:16;;;;;;;1.70;1.30;;;;;;;6.47;100.00;97198.23;109966;1249;69399;-69
2022/09/20 00:42:49;;;;;;;1.00;1.00;;;;;;;6.47;100.00;97196.86;109820;1248;59688;-67
2022/09/20 00:45:28;;;;;;;0.80;0.80;;;;;;;6.48;100.00;97200.43;109837;1247;59982;-69
2022/09/20 00:48:10;;;;;;;1.30;1.20;;;;;;;6.50;100.00;97191.80;109900;1247;70820;-69
2022/09/20 00:50:42;;;;;;;0.90;0.90;;;;;;;6.52;100.00;97194.98;109868;1247;68896;-68
2022/09/20 00:53:20;;;;;;;1.40;0.90;;;;;;;6.56;100.00;97198.56;109845;1247;68843;-70
2022/09/20 00:56:06;;;;;;;1.40;1.10;;;;;;;6.58;100.00;97195.88;109760;1249;59778;-68
2022/09/20 00:58:45;;;;;;;1.10;1.00;;;;;;;6.56;100.00;97193.87;109722;1251;59605;-69
2022/09/20 01:01:15;;;;;;;1.10;1.00;;;;;;;6.57;100.00;97190.19;109758;1248;71508;-67
2022/09/20 01:03:48;;;;;;;1.30;1.00;;;;;;;6.55;100.00;97180.63;109790;1248;68658;-67
2022/09/20 01:06:22;;;;;;;1.60;1.00;;;;;;;6.51;100.00;97169.73;109761;1249;69231;-68
2022/09/20 01:08:58;;;;;;;1.60;0.90;;;;;;;6.49;100.00;97165.23;109975;1247;59694;-67
2022/09/20 01:11:30;;;;;;;1.90;1.10;;;;;;;6.45;99.90;97169.30;109751;1247;59741;-68
2022/09/20 01:14:01;;;;;;;1.00;1.00;;;;;;;6.39;99.82;97166.36;109743;1248;70830;-68
2022/09/20 01:16:33;;;;;;;1.10;1.00;;;;;;;6.35;99.85;97164.17;109730;1251;69398;-67
2022/09/20 01:19:14;;;;;;;1.20;1.00;;;;;;;6.29;99.98;97162.61;109837;1247;69230;-67
2022/09/20 01:21:47;;;;;;;1.00;0.90;;;;;;;6.22;100.00;97161.14;109780;1251;59747;-68
2022/09/20 01:24:26;;;;;;;1.50;1.10;;;;;;;6.17;100.00;97155.70;109833;1250;59750;-69
2022/09/20 01:27:13;;;;;;;1.30;1.10;;;;;;;6.14;100.00;97148.98;109983;1249;71367;-69
2022/09/20 01:29:54;;;;;;;1.00;0.90;;;;;;;6.10;100.00;97149.34;109813;1248;68527;-69
2022/09/20 01:32:34;;;;;;;1.10;1.00;;;;;;;6.07;100.00;97149.53;109924;1248;70359;-68
2022/09/20 01:35:06;;;;;;;1.00;1.00;;;;;;;6.04;100.00;97148.00;109981;1247;60262;-68
2022/09/20 01:38:05;;;;;;;1.30;1.10;;;;;;;5.99;100.00;97147.08;109742;1247;59729;-67
2022/09/20 01:40:50;;;;;;;1.50;1.20;;;;;;;5.93;100.00;97150.39;109742;1248;71522;-68
2022/09/20 01:43:35;;;;;;;1.40;1.10;;;;;;;5.85;100.00;97147.84;109952;1249;69313;-68
2022/09/20 01:46:24;;;;;;;0.90;0.80;;;;;;;5.79;100.00;97151.34;109918;1248;69274;-68
2022/09/20 01:49:18;;;;;;;1.00;0.90;;;;;;;5.73;100.00;97156.19;109734;1248;59684;-68
2022/09/20 01:52:25;;;;;;;1.10;1.00;;;;;;;5.68;100.00;97159.57;109994;1248;59676;-67
2022/09/20 01:55:13;;;;;;;3.20;1.30;;;;;;;5.67;100.00;97162.25;109205;1247;659527;-67
2022/09/20 01:58:01;;;;;;;0.80;0.80;;;;;;;5.64;100.00;97164.64;109662;1249;68868;-67
2022/09/20 02:01:12;;;;;;;2.20;1.30;;;;;;;5.63;100.00;97172.11;109835;1247;68486;-67
2022/09/20 02:04:04;;;;;;;6.60;2.00;;;;;;;5.63;100.00;97171.06;109672;1250;59753;-69
2022/09/20 02:06:40;;;;;;;2.70;1.40;;;;;;;5.65;100.00;97166.52;109758;1249;59688;-68
2022/09/20 02:09:32;;;;;;;3.70;1.30;;;;;;;5.67;100.00;97166.59;109970;1249;71580;-67
2022/09/20 02:12:09;;;;;;;1.80;1.40;;;;;;;5.66;100.00;97168.67;109982;1250;67658;-68
2022/09/20 02:15:04;;;;;;;1.60;1.20;;;;;;;5.68;100.00;97171.68;110001;1247;68831;-69
2022/09/20 02:17:59;;;;;;;1.30;1.20;;;;;;;5.71;100.00;97173.44;109687;1248;59756;-70
2022/09/20 02:20:54;;;;;;;1.90;1.70;;;;;;;5.73;100.00;97175.02;110012;1248;59692;-70
2022/09/20 02:23:45;;;;;;;1.50;1.40;;;;;;;5.76;100.00;97177.10;109799;1248;71490;-69
2022/09/20 02:26:45;;;;;;;1.40;1.30;;;;;;;5.77;100.00;97178.23;109906;1247;69476;-70
2022/09/20 02:29:55;;;;;;;1.50;1.40;;;;;;;5.82;100.00;97173.11;109785;1248;68618;-70
2022/09/20 02:32:40;;;;;;;1.60;1.50;;;;;;;5.86;100.00;97181.86;109396;1254;59884;-69
2022/09/20 02:35:15;;;;;;;1.40;1.20;;;;;;;5.90;100.00;97182.34;109891;1254;59675;-67
2022/09/20 02:38:10;;;;;;;1.90;1.30;;;;;;;5.94;100.00;97180.56;109590;1251;71548;-69
2022/09/20 02:40:51;;;;;;;2.30;1.50;;;;;;;6.00;100.00;97174.20;110046;1249;69207;-66
2022/09/20 02:43:37;;;;;;;1.60;1.30;;;;;;;6.03;100.00;97177.48;109736;1247;68317;-70
2022/09/20 02:46:28;;;;;;;1.60;1.30;;;;;;;6.04;100.00;97178.58;109796;1247;59697;-68
2022/09/20 02:49:06;;;;;;;1.30;1.10;;;;;;;6.06;100.00;97176.78;109816;1247;59648;-68
2022/09/20 02:51:43;;;;;;;1.60;1.40;;;;;;;6.07;100.00;97181.71;109805;1247;71339;-68
2022/09/20 02:54:34;;;;;;;1.40;1.30;;;;;;;6.09;100.00;97182.96;109693;1249;69442;-67
2022/09/20 02:57:44;;;;;;;1.70;1.10;;;;;;;6.12;100.00;97179.84;109841;1248;68817;-70
2022/09/20 03:00:23;;;;;;;1.20;1.10;;;;;;;6.13;100.00;97182.25;109858;1247;59726;-68
2022/09/20 03:02:56;;;;;;;2.30;1.10;;;;;;;6.14;100.00;97184.45;109712;1249;59687;-68
2022/09/20 03:05:34;;;;;;;0.90;0.90;;;;;;;6.13;100.00;97182.75;109715;1248;71735;-67
2022/09/20 03:08:07;;;;;;;1.40;1.30;;;;;;;6.13;100.00;97183.79;109822;1247;69224;-69
2022/09/20 03:10:47;;;;;;;1.80;1.50;;;;;;;6.11;100.00;97183.38;109643;1247;68443;-69
2022/09/20 03:13:47;;;;;;;3.00;1.60;;;;;;;6.06;100.00;97184.58;109982;1247;59666;-68
2022/09/20 03:16:38;;;;;;;1.90;1.80;;;;;;;6.00;100.00;97188.04;109817;1247;60154;-68
2022/09/20 03:19:32;;;;;;;1.60;1.40;;;;;;;5.96;100.00;97187.25;109785;1247;70569;-68
2022/09/20 03:22:14;;;;;;;2.00;1.50;;;;;;;5.93;100.00;97188.96;109836;1247;69385;-67
2022/09/20 03:25:15;;;;;;;3.30;1.70;;;;;;;5.90;100.00;97192.00;109680;1249;68647;-70
2022/09/20 03:28:03;;;;;;;1.90;1.60;;;;;;;5.86;100.00;97189.14;109689;1246;60101;-70
2022/09/20 03:31:14;;;;;;;4.20;1.90;;;;;;;5.83;100.00;97192.79;109791;1247;59642;-69
2022/09/20 03:33:50;;;;;;;3.50;1.90;;;;;;;5.79;100.00;97193.20;109689;1247;70730;-66
2022/09/20 03:36:37;;;;;;;2.30;1.70;;;;;;;5.76;100.00;97197.70;110022;1247;69486;-68
2022/09/20 03:39:35;;;;;;;2.30;1.40;;;;;;;5.72;100.00;97194.08;109872;1247;68641;-70
2022/09/20 03:42:18;;;;;;;2.00;1.70;;;;;;;5.71;100.00;97200.23;109845;1248;59657;-69
2022/09/20 03:45:12;;;;;;;2.60;1.70;;;;;;;5.70;100.00;97200.81;109946;1248;59609;-69
2022/09/20 03:47:53;;;;;;;3.30;1.60;;;;;;;5.70;100.00;97204.29;110081;1248;71005;-70
2022/09/20 03:50:46;;;;;;;2.90;1.90;;;;;;;5.70;100.00;97208.25;109905;1249;68749;-70
2022/09/20 03:53:50;;;;;;;1.80;1.60;;;;;;;5.71;100.00;97204.00;110052;1248;68896;-69
2022/09/20 03:56:51;;;;;;;2.00;1.60;;;;;;;5.74;100.00;97205.92;109802;1247;59703;-68
2022/09/20 03:59:53;;;;;;;3.30;2.40;;;;;;;5.75;100.00;97202.20;109951;1248;59673;-69
2022/09/20 04:02:35;;;;;;;3.70;2.60;;;;;;;5.76;100.00;97206.83;110080;1247;70768;-69
2022/09/20 04:05:32;;;;;;;3.20;2.00;;;;;;;5.75;100.00;97208.45;109964;1249;69795;-68
2022/09/20 04:08:39;;;;;;;3.10;2.20;;;;;;;5.75;100.00;97210.01;109864;1246;69454;-71
2022/09/20 04:11:44;;;;;;;4.90;3.40;;;;;;;5.77;100.00;97208.70;109964;1247;59709;-69
2022/09/20 04:14:32;;;;;;;3.10;2.60;;;;;;;5.78;100.00;97212.11;109663;1247;59689;-68
2022/09/20 04:17:20;;;;;;;4.00;2.60;;;;;;;5.79;100.00;97217.55;110091;1247;71521;-68
2022/09/20 04:20:07;;;;;;;5.90;3.90;;;;;;;5.82;100.00;97218.42;110188;1247;68527;-70
2022/09/20 04:22:58;;;;;;;4.80;3.20;;;;;;;5.86;100.00;97220.30;110019;1250;68632;-67
2022/09/20 04:25:44;;;;;;;3.50;2.40;;;;;;;5.89;100.00;97223.90;110244;1247;59798;-67
2022/09/20 04:28:48;;;;;;;3.50;2.30;;;;;;;5.94;100.00;97224.50;110149;1247;59625;-68
2022/09/20 04:31:35;;;;;;;3.60;2.30;;;;;;;6.00;100.00;97229.73;109755;1247;71615;-68
2022/09/20 04:34:12;;;;;;;4.20;2.90;;;;;;;6.04;100.00;97232.09;110034;1247;70454;-68
2022/09/20 04:37:01;;;;;;;4.00;2.90;;;;;;;6.09;100.00;97234.38;109905;1247;68511;-70
2022/09/20 04:39:48;;;;;;;2.90;2.20;;;;;;;6.11;100.00;97234.09;109616;1248;59758;-68
2022/09/20 04:42:40;;;;;;;3.20;2.40;;;;;;;6.14;100.00;97233.92;109661;1249;59760;-68
2022/09/20 04:45:22;;;;;;;5.60;2.90;;;;;;;6.18;100.00;97235.97;109892;1247;71531;-68
2022/09/20 04:48:12;;;;;;;2.50;1.90;;;;;;;6.18;100.00;97241.52;110226;1247;70019;-67
2022/09/20 04:51:18;;;;;;;4.70;3.30;;;;;;;6.20;100.00;97237.23;110247;1247;68906;-67
2022/09/20 04:54:18;;;;;;;4.10;3.00;;;;;;;6.22;100.00;97239.20;109725;1247;59686;-67
2022/09/20 04:57:05;;;;;;;3.60;2.50;;;;;;;6.19;100.00;97239.73;110023;1247;59745;-68
2022/09/20 04:59:54;;;;;;;3.80;2.90;;;;;;;6.17;100.00;97238.98;109854;1249;72135;-67
2022/09/20 05:02:47;;;;;;;3.00;2.60;;;;;;;6.16;100.00;97239.05;109810;1249;69338;-69
2022/09/20 05:05:28;;;;;;;3.00;2.60;;;;;;;6.14;100.00;97240.16;109938;1249;69927;-67
2022/09/20 05:07:59;;;;;;;4.00;2.60;;;;;;;6.15;100.00;97239.91;109879;1249;59705;-69
2022/09/20 05:10:56;;;;;;;5.60;2.70;;;;;;;6.19;100.00;97243.02;109747;1249;59692;-68
2022/09/20 05:13:30;;;;;;;3.60;2.20;;;;;;;6.24;100.00;97246.48;109775;1249;70853;-68
2022/09/20 05:16:18;;;;;;;3.70;2.80;;;;;;;6.30;100.00;97245.65;109792;1249;69997;-68
2022/09/20 05:19:00;;;;;;;3.80;2.70;;;;;;;6.36;100.00;97249.25;109605;1249;68973;-68
2022/09/20 05:22:04;;;;;;;3.90;2.20;;;;;;;6.42;100.00;97251.18;109592;1249;59727;-69
2022/09/20 05:24:55;;;;;;;2.80;2.30;;;;;;;6.46;100.00;97249.02;109636;1249;59750;-70
2022/09/20 05:28:01;;;;;;;3.40;2.20;;;;;;;6.49;100.00;97250.58;109620;1249;71628;-68
2022/09/20 05:30:37;;;;;;;2.70;2.30;;;;;;;6.55;100.00;97250.23;109738;1249;68345;-68
2022/09/20 05:33:43;;;;;;;3.00;2.50;;;;;;;6.60;100.00;97247.69;110005;1249;70069;-69
2022/09/20 05:36:38;;;;;;;4.40;2.70;;;;;;;6.69;100.00;97250.61;109771;1249;59680;-68
2022/09/20 05:39:12;;;;;;;;;;;;;;;6.71;100.00;97245.83;109821;1249;59684;-68
2022/09/20 05:42:22;;;;;;;3.40;2.60;;;;;;;6.69;99.39;97250.08;109744;1249;71221;-68
2022/09/20 05:45:22;;;;;;;4.70;3.00;;;;;;;6.68;98.79;97250.32;109624;1249;69421;-67
2022/09/20 05:47:58;;;;;;;4.30;3.00;;;;;;;6.70;97.89;97251.61;109663;1249;69545;-67
2022/09/20 05:50:36;;;;;;;4.10;2.80;;;;;;;6.80;98.44;97248.25;109742;1249;59787;-68
2022/09/20 05:53:33;;;;;;;4.40;3.10;;;;;;;6.86;98.13;97249.39;109659;1249;59652;-69
2022/09/20 05:56:17;;;;;;;6.10;3.50;;;;;;;6.94;97.80;97251.67;109743;1249;70796;-69
2022/09/20 05:59:06;;;;;;;3.80;2.50;;;;;;;7.03;97.40;97249.63;110325;1247;68448;-68
2022/09/20 06:01:49;;;;;;;3.70;3.10;;;;;;;7.15;97.59;97250.95;109785;1248;69096;-69
2022/09/20 06:04:29;;;;;;;8.20;3.40;;;;;;;7.23;96.56;97257.38;110008;1247;59756;-67
2022/09/20 06:07:21;;;;;;;3.70;3.00;;;;;;;7.29;96.75;97258.73;110065;1247;60056;-68
2022/09/20 06:09:58;;;;;;;3.60;3.30;;;;;;;7.32;97.46;97260.62;110318;1247;70884;-67
2022/09/20 06:12:42;;;;;;;4.90;3.50;;;;;;;7.34;96.94;97264.46;110046;1248;70084;-66
2022/09/20 06:15:18;;;;;;;4.30;3.20;;;;;;;7.31;96.12;97263.81;110074;1247;68762;-68
2022/09/20 06:17:59;;;;;;;5.00;3.40;;;;;;;7.25;95.92;97265.77;109741;1247;59748;-68
2022/09/20 06:21:03;;;;;;;5.00;3.00;;;;;;;7.25;96.08;97269.77;109906;1247;59690;-68
2022/09/20 06:23:34;;;;;;;4.70;3.50;;;;;;;7.33;96.28;97265.91;109987;1247;71590;-68
2022/09/20 06:26:13;;;;;;;5.30;3.80;;;;;;;7.37;95.28;97267.91;110120;1247;68825;-68
2022/09/20 06:28:49;;;;;;;4.80;3.40;;;;;;;7.46;95.16;97265.67;109836;1248;69586;-66
2022/09/20 06:31:18;;;;;;;4.80;3.90;;;;;;;7.58;95.20;97270.45;109993;1248;60151;-66
2022/09/20 06:33:52;;;;;;;4.40;3.30;;;;;;;7.67;95.14;97272.48;109863;1247;59627;-66
2022/09/20 06:42:28;;;;;;;4.10;2.70;;;;;;;8.09;92.16;97264.39;110031;1247;68734;-69
2022/09/20 06:44:57;;;;;;;;;;;;;;;8.05;91.10;97265.70;109734;1248;59722;-68
2022/09/20 06:47:26;;;;;;;4.70;2.80;;;;;;;8.13;91.73;97269.38;110004;1247;59606;-71
2022/09/20 06:49:55;;;;;;;3.50;2.70;;;;;;;8.21;91.46;97268.67;109906;1247;71647;-71
2022/09/20 06:52:25;;;;;;;5.20;3.70;;;;;;;8.45;92.36;97272.83;109780;1247;69299;-70
2022/09/20 06:54:56;;;;;;;4.10;3.30;;;;;;;8.58;91.44;97272.84;110104;1248;68456;-69
2022/09/20 06:57:37;;;;;;;4.50;3.00;;;;;;;8.65;91.30;97271.83;109903;1247;59730;-70
2022/09/20 07:00:16;;;;;;;3.80;3.20;;;;;;;8.78;91.10;97272.23;109853;1247;59716;-72
2022/09/20 07:02:52;;;;;;;4.80;3.20;;;;;;;8.76;90.24;97270.73;109950;1248;71787;-73
2022/09/20 07:05:27;;;;;;;4.90;3.40;;;;;;;8.87;90.13;97272.80;110276;1248;68607;-73
2022/09/20 07:08:08;;;;;;;5.50;3.40;;;;;;;8.94;89.62;97275.80;109831;1247;69325;-72
2022/09/20 07:10:46;;;;;;;4.90;3.50;;;;;;;9.05;89.88;97277.10;110043;1247;59729;-72
2022/09/20 07:13:28;;;;;;;3.60;3.10;;;;;;;9.14;90.14;97281.55;109913;1247;59755;-72
2022/09/20 07:16:13;;;;;;;3.20;2.80;;;;;;;9.31;89.09;97283.88;109942;1247;71189;-73
2022/09/20 07:18:52;;;;;;;4.80;3.40;;;;;;;9.31;87.58;97281.62;109974;1247;71175;-73
2022/09/20 07:21:39;;;;;;;5.80;3.80;;;;;;;9.37;86.99;97284.27;109985;1247;68836;-72
2022/09/20 07:24:21;;;;;;;4.90;3.30;;;;;;;9.57;87.37;97278.70;109787;1247;59697;-71
2022/09/20 07:27:01;;;;;;;6.70;3.50;;;;;;;10.20;86.74;97278.53;110020;1248;60121;-71
2022/09/20 07:29:47;;;;;;;4.50;3.30;;;;;;;10.75;81.45;97283.00;109942;1247;71578;-69
2022/09/20 07:32:21;;;;;;;6.60;4.10;;;;;;;11.09;79.68;97281.14;109808;1247;69093;-72
2022/09/20 07:34:55;;;;;;;4.60;3.70;;;;;;;11.41;77.99;97281.06;109923;1247;69443;-69
2022/09/20 07:37:33;;;;;;;5.20;3.80;;;;;;;11.35;74.62;97282.26;109712;1247;59734;-70
2022/09/20 07:40:10;;;;;;;4.80;3.30;;;;;;;11.20;75.87;97287.42;110029;1247;59745;-72
2022/09/20 07:42:45;;;;;;;4.10;3.10;;;;;;;11.06;75.50;97289.02;109970;1247;71564;-69
2022/09/20 07:45:30;;;;;;;5.80;3.20;;;;;;;10.96;74.54;97285.77;109858;1247;68526;-72
2022/09/20 07:48:08;;;;;;;4.20;2.70;;;;;;;10.93;75.49;97285.65;109939;1247;69410;-72
2022/09/20 07:50:57;;;;;;;4.30;3.00;;;;;;;10.99;75.87;97286.45;109680;1246;59782;-71
2022/09/20 07:53:32;;;;;;;3.40;2.60;;;;;;;10.92;74.74;97285.72;109920;1247;59695;-72
2022/09/20 07:56:16;;;;;;;3.80;3.00;;;;;;;10.77;75.19;97285.27;109879;1247;71347;-69
2022/09/20 07:58:50;;;;;;;3.50;2.70;;;;;;;10.44;75.40;97283.94;110232;1247;68928;-71
2022/09/20 08:01:21;;;;;;;4.30;2.80;;;;;;;10.14;77.69;97285.44;110530;1247;68640;-74
2022/09/20 08:03:50;;;;;;;3.70;2.90;;;;;;;10.01;79.56;97284.96;110219;1248;59664;-70
2022/09/20 08:06:20;;;;;;;4.50;3.70;;;;;;;10.07;78.65;97282.11;110156;1247;59669;-71
2022/09/20 08:08:50;;;;;;;4.30;2.90;;;;;;;10.13;78.32;97282.84;110200;1247;71935;-70
2022/09/20 08:11:21;;;;;;;;;;;;;;;10.74;76.64;97286.55;110268;1247;69387;-69
2022/09/20 08:13:52;;;;;;;4.40;3.20;;;;;;;11.27;73.87;97282.65;110099;1247;68729;-72
2022/09/20 08:16:42;;;;;;;6.10;2.90;;;;;;;11.83;72.74;97284.18;109860;1247;59703;-72
2022/09/20 08:19:19;;;;;;;3.30;2.60;;;;;;;12.32;71.72;97278.04;109704;1247;59692;-72
2022/09/20 08:21:51;;;;;;;2.90;2.40;;;;;;;12.50;68.96;97277.08;109756;1250;70748;-72
2022/09/20 08:24:25;;;;;;;3.00;2.60;;;;;;;12.37;69.24;97273.93;109807;1247;69731;-72
2022/09/20 08:26:57;;;;;;;2.40;2.10;;;;;;;12.03;66.92;97272.11;109950;1247;68692;-72
2022/09/20 08:29:26;;;;;;;2.10;1.90;;;;;;;11.74;68.75;97276.90;109917;1247;59706;-70
2022/09/20 08:31:57;;;;;;;1.90;1.70;;;;;;;11.70;69.89;97274.64;109930;1247;59702;-69
2022/09/20 08:34:26;;;;;;;3.50;2.70;;;;;;;11.41;69.66;97278.80;109774;1248;72045;-71
2022/09/20 08:36:55;;;;;;;3.40;2.50;;;;;;;11.15;70.36;97279.56;109871;1248;69442;-71
2022/09/20 08:39:24;;;;;;;3.40;2.10;;;;;;;11.17;70.73;97280.87;110033;1248;69419;-72
2022/09/20 08:42:35;;;;;;;2.70;2.20;;;;;;;11.20;70.62;97281.48;110029;1248;59724;-71
2022/09/20 08:45:18;;;;;;;2.50;2.30;;;;;;;11.22;70.62;97278.41;109819;1250;59656;-69
2022/09/20 08:48:07;;;;;;;3.90;2.40;;;;;;;11.01;70.90;97280.67;110005;1248;72397;-70
2022/09/20 08:50:36;;;;;;;2.70;2.10;;;;;;;10.86;72.03;97277.65;109823;1249;70540;-70
2022/09/20 08:53:05;;;;;;;2.90;2.30;;;;;;;10.86;73.11;97274.80;109917;1247;69230;-70
2022/09/20 08:55:38;;;;;;;1.90;1.70;;;;;;;10.80;69.77;97274.10;109775;1247;60447;-71
2022/09/20 08:58:11;;;;;;;2.60;2.00;;;;;;;11.08;70.31;97274.06;110120;1247;59783;-70
2022/09/20 09:00:45;;;;;;;1.80;1.50;;;;;;;11.58;68.11;97272.55;110094;1247;71583;-69
2022/09/20 09:03:16;;;;;;;2.10;1.80;;;;;;;12.60;66.20;97270.98;109850;1248;69028;-70
2022/09/20 09:05:50;;;;;;;2.60;1.80;;;;;;;13.08;62.41;97272.39;109742;1249;68731;-73
2022/09/20 09:08:23;;;;;;;3.10;1.90;;;;;;;12.91;61.66;97268.34;109970;1249;59788;-72
2022/09/20 09:10:55;;;;;;;2.70;1.90;;;;;;;12.84;63.00;97272.14;110151;1247;59728;-72
2022/09/20 09:13:48;;;;;;;2.30;1.80;;;;;;;13.25;63.11;97271.05;110073;1247;69807;-72
2022/09/20 09:16:18;;;;;;;2.50;1.80;;;;;;;13.03;61.38;97273.09;110129;1247;68608;-71
2022/09/20 09:19:17;;;;;;;3.00;1.50;;;;;;;12.84;60.16;97269.14;109848;1249;69642;-70
2022/09/20 09:21:46;;;;;;;1.70;1.30;;;;;;;12.64;61.50;97272.90;109915;1247;59729;-70
2022/09/20 09:24:19;;;;;;;2.50;1.80;;;;;;;12.71;61.78;97276.53;109792;1248;59706;-69
2022/09/20 09:26:48;;;;;;;2.40;1.80;;;;;;;12.32;61.65;97276.65;109789;1247;71360;-72
2022/09/20 09:29:23;;;;;;;2.80;1.80;;;;;;;12.17;63.65;97270.83;109862;1247;68605;-69
2022/09/20 09:31:55;;;;;;;1.60;1.40;;;;;;;12.09;63.50;97270.44;110013;1247;68877;-70
2022/09/20 09:34:37;;;;;;;2.30;1.80;;;;;;;12.08;62.47;97270.33;109984;1247;59748;-70
2022/09/20 09:37:22;;;;;;;2.70;1.80;;;;;;;12.29;62.34;97269.35;109881;1248;59762;-69
2022/09/20 09:40:15;;;;;;;2.50;1.70;;;;;;;12.70;63.19;97270.15;109722;1249;72308;-70
2022/09/20 09:42:55;;;;;;;2.50;1.80;;;;;;;12.75;61.14;97265.01;109786;1250;70045;-70
2022/09/20 09:45:26;;;;;;;1.80;1.50;;;;;;;12.92;60.62;97265.64;109848;1249;69870;-70
2022/09/20 09:47:58;;;;;;;2.50;1.80;;;;;;;13.39;61.39;97264.98;109870;1249;59690;-72
2022/09/20 09:50:33;;;;;;;2.80;2.20;;;;;;;13.50;60.97;97264.94;110031;1249;59691;-71
2022/09/20 09:53:11;;;;;;;2.90;2.50;;;;;;;13.20;61.00;97263.45;110048;1248;70960;-71
2022/09/20 09:56:06;;;;;;;2.50;1.90;;;;;;;12.84;61.44;97264.19;109923;1248;68446;-71
2022/09/20 09:58:57;;;;;;;3.20;2.90;;;;;;;12.62;61.43;97268.37;110001;1247;68441;-72
2022/09/20 10:01:46;;;;;;;4.10;2.70;;;;;;;12.73;63.29;97269.14;109710;1248;59698;-71
2022/09/20 10:04:50;;;;;;;3.50;2.60;;;;;;;12.90;62.90;97272.08;109852;1248;59626;-71
2022/09/20 10:07:26;;;;;;;4.50;3.20;;;;;;;13.25;62.85;97270.02;109890;1248;70735;-69
2022/09/20 10:09:58;;;;;;;4.30;2.90;;;;;;;13.41;62.04;97271.47;109689;1249;69158;-67
2022/09/20 10:12:53;;;;;;;3.50;2.40;;;;;;;13.38;61.15;97268.05;109809;1249;69714;-71
2022/09/20 10:15:49;;;;;;;3.40;2.90;;;;;;;13.39;61.56;97266.55;109923;1247;59728;-69
2022/09/20 10:18:26;;;;;;;3.10;2.70;;;;;;;13.35;61.37;97266.55;109958;1247;59679;-71
2022/09/20 10:21:15;;;;;;;3.80;2.50;;;;;;;13.39;60.75;97263.23;109850;1248;71981;-71
2022/09/20 10:24:29;;;;;;;2.90;2.20;;;;;;;13.31;59.74;97264.45;110129;1248;69282;-71
2022/09/20 10:27:04;;;;;;;2.40;1.90;;;;;;;13.66;59.07;97258.05;109950;1248;69238;-69
2022/09/20 10:29:59;;;;;;;4.00;2.00;;;;;;;13.76;57.53;97258.44;109803;1248;59777;-70
2022/09/20 10:32:48;;;;;;;2.70;1.60;;;;;;;14.12;56.87;97258.39;109995;1248;59652;-72
2022/09/20 10:35:36;;;;;;;2.90;2.30;;;;;;;14.58;56.33;97261.98;109933;1249;71623;-71
2022/09/20 10:38:11;;;;;;;3.70;2.30;;;;;;;14.05;56.32;97256.05;110162;1248;67729;-71
2022/09/20 10:44:04;;;;;;;2.20;1.90;;;;;;;14.79;53.46;97251.98;110046;1248;59726;-70
2022/09/20 10:46:50;;;;;;;1.80;1.40;;;;;;;14.85;54.70;97254.76;110108;1249;59647;-70
2022/09/20 10:49:40;;;;;;;2.00;1.50;;;;;;;14.91;54.56;97256.64;110007;1248;71611;-71
2022/09/20 10:52:41;;;;;;;2.70;1.80;;;;;;;14.87;53.88;97256.16;109991;1247;69064;-72
2022/09/20 10:55:35;;;;;;;1.60;1.50;;;;;;;14.68;53.65;97256.79;109924;1248;69930;-70
2022/09/20 10:58:29;;;;;;;2.20;1.40;;;;;;;14.57;56.84;97261.54;109627;1247;59778;-71
2022/09/20 11:01:03;;;;;;;3.90;3.00;;;;;;;14.19;60.53;97259.02;109792;1249;59755;-70
2022/09/20 11:04:26;;;;;;;6.40;4.10;;;;;;;13.98;60.63;97261.58;109674;1248;70666;-71
2022/09/20 11:07:04;;;;;;;7.80;5.00;;;;;;;13.58;61.94;97269.61;109885;1247;69229;-72
2022/09/20 11:09:46;;;;;;;43.30;24.10;;;;;;;13.29;64.03;97275.83;110333;1247;67677;-70
2022/09/20 11:12:28;;;;;;;26.10;14.40;;;;;;;13.45;64.95;97269.86;109947;1247;59741;-70
2022/09/20 11:15:25;;;;;;;14.50;8.50;;;;;;;13.52;65.48;97267.35;109772;1247;59740;-70
2022/09/20 11:18:22;;;;;;;34.80;20.20;;;;;;;14.20;65.57;97264.81;109889;1249;71763;-69
2022/09/20 11:21:01;;;;;;;15.20;8.30;;;;;;;15.04;60.85;97265.59;109812;1248;69314;-73
2022/09/20 11:23:43;;;;;;;46.60;28.90;;;;;;;15.58;59.73;97259.63;110010;1247;68444;-71
2022/09/20 11:26:20;;;;;;;8.90;5.30;;;;;;;16.16;58.48;97257.02;109841;1249;59683;-73
2022/09/20 11:28:54;;;;;;;3.90;2.40;;;;;;;16.76;56.98;97255.33;110097;1248;59690;-71
2022/09/20 11:31:31;;;;;;;5.80;3.20;;;;;;;17.12;54.31;97252.22;109686;1247;72259;-70
2022/09/20 11:34:24;;;;;;;1.90;1.50;;;;;;;17.28;54.40;97253.27;109813;1248;69377;-71
2022/09/20 11:37:00;;;;;;;2.40;1.90;;;;;;;17.63;54.05;97248.05;109997;1247;68706;-71
2022/09/20 11:39:54;;;;;;;1.60;1.30;;;;;;;17.65;52.46;97245.34;110039;1249;59771;-72
2022/09/20 11:42:26;;;;;;;2.10;1.30;;;;;;;17.66;48.88;97241.73;110012;1248;59773;-74
2022/09/20 11:44:55;;;;;;;1.30;1.00;;;;;;;17.95;50.47;97241.31;110011;1248;71337;-70
2022/09/20 11:47:50;;;;;;;1.20;1.10;;;;;;;18.23;49.45;97241.33;110048;1247;68484;-72
2022/09/20 11:50:44;;;;;;;1.50;1.30;;;;;;;18.08;50.45;97237.98;109978;1247;69481;-72
2022/09/20 11:53:29;;;;;;;1.00;0.90;;;;;;;17.44;50.43;97240.83;109755;1247;59687;-70
2022/09/20 11:56:34;;;;;;;1.50;1.10;;;;;;;17.06;50.82;97240.11;109873;1249;59708;-70
2022/09/20 11:59:06;;;;;;;1.70;1.40;;;;;;;16.73;50.52;97241.73;109706;1247;71146;-70
2022/09/20 12:01:38;;;;;;;1.00;0.60;;;;;;;16.76;51.51;97239.96;109827;1247;69152;-71
2022/09/20 12:04:25;;;;;;;0.70;0.70;;;;;;;17.62;45.88;97234.36;109749;1248;70029;-69
2022/09/20 12:07:24;;;;;;;0.80;0.70;;;;;;;18.54;42.24;97228.88;109719;1247;59757;-70
2022/09/20 12:10:17;;;;;;;0.70;0.70;;;;;;;18.65;41.59;97229.05;109722;1249;59716;-69
2022/09/20 12:12:58;;;;;;;1.10;0.90;;;;;;;18.65;42.58;97230.98;109709;1248;70704;-71
2022/09/20 12:27:49;;;;;;;0.90;0.60;;;;;;;17.12;45.03;97235.91;106267;1289;610554;-72
2022/09/20 12:30:21;;;;;;;1.20;0.80;;;;;;;16.48;46.21;97241.88;108554;1260;306860;-71
2022/09/20 12:32:56;;;;;;;1.40;0.90;;;;;;;15.90;46.65;97246.17;109155;1260;57664;-72
2022/09/20 12:35:43;;;;;;;1.20;0.60;;;;;;;15.49;47.24;97244.36;109001;1260;68581;-73
2022/09/20 12:38:21;;;;;;;1.00;0.90;;;;;;;15.65;47.84;97245.64;109202;1260;69814;-73
2022/09/20 12:41:00;;;;;;;1.00;0.90;;;;;;;16.61;47.07;97243.27;109194;1260;70104;-73
2022/09/20 12:43:31;;;;;;;0.70;0.70;;;;;;;17.14;44.33;97242.50;108962;1259;57633;-73
2022/09/20 12:46:05;;;;;;;1.00;0.80;;;;;;;16.91;44.87;97240.60;109170;1260;57676;-72
2022/09/20 12:48:42;;;;;;;1.20;0.90;;;;;;;16.71;45.53;97240.30;109204;1260;67970;-72
2022/09/20 12:54:52;;;;;;;0.70;0.70;;;;;;;15.23;47.98;97241.73;108343;1268;69025;-72
2022/09/20 12:57:31;;;;;;;0.80;0.80;;;;;;;14.95;49.32;97242.09;108963;1260;58125;-72
2022/09/20 13:00:01;;;;;;;1.30;1.00;;;;;;;14.97;48.64;97243.59;109195;1260;58068;-72
2022/09/20 13:02:59;;;;;;;1.20;0.90;;;;;;;14.74;50.71;97247.16;108996;1260;70016;-72
2022/09/20 13:05:39;;;;;;;1.70;1.00;;;;;;;14.89;52.16;97254.75;109179;1260;69171;-72